createdAt,value
2022-08-11T00:02:00.637Z,0.40
2022-08-11T00:04:34.621Z,0.30
2022-08-11T00:07:04.310Z,0.63
2022-08-11T00:09:39.469Z,0.30
2022-08-11T00:12:15.469Z,0.35
2022-08-11T00:14:44.661Z,0.50
2022-08-11T00:17:16.168Z,0.38
2022-08-11T00:20:12.052Z,0.45
2022-08-11T00:22:41.945Z,0.50
2022-08-11T00:25:18.340Z,0.60
2022-08-11T00:27:47.617Z,0.50
2022-08-11T00:30:15.992Z,0.38
2022-08-11T00:32:46.447Z,0.30
2022-08-11T00:35:51.968Z,0.57
2022-08-11T00:38:06.771Z,0.50
2022-08-11T00:40:42.845Z,0.32
2022-08-11T00:43:47.461Z,0.40
2022-08-11T00:46:27.683Z,0.50
2022-08-11T00:49:16.582Z,0.40
2022-08-11T00:52:09.424Z,0.55
2022-08-11T00:55:07.968Z,0.60
2022-08-11T00:57:54.711Z,0.40
2022-08-11T01:00:24.534Z,0.38
2022-08-11T01:03:29.641Z,0.40
2022-08-11T01:06:34.674Z,0.50
2022-08-11T01:09:22.808Z,0.30
2022-08-11T01:11:56.434Z,0.40
2022-08-11T01:14:46.960Z,0.50
2022-08-11T01:17:51.764Z,0.50
2022-08-11T01:20:47.863Z,0.30
2022-08-11T01:23:28.561Z,0.60
2022-08-11T01:26:17.941Z,0.40
2022-08-11T01:29:03.098Z,0.35
2022-08-11T01:31:50.368Z,0.60
2022-08-11T01:34:48.808Z,0.40
2022-08-11T01:37:31.469Z,0.40
2022-08-11T01:40:30.623Z,1.13
2022-08-11T01:43:41.492Z,0.40
2022-08-11T01:46:23.106Z,0.73
2022-08-11T01:49:01.582Z,0.40
2022-08-11T01:51:58.000Z,0.40
2022-08-11T01:54:37.420Z,0.43
2022-08-11T01:57:16.658Z,0.47
2022-08-11T01:59:52.026Z,0.50
2022-08-11T02:02:48.077Z,0.43
2022-08-11T02:05:37.875Z,0.60
2022-08-11T02:08:41.938Z,0.35
2022-08-11T02:11:37.487Z,0.35
2022-08-11T02:14:25.026Z,0.40
2022-08-11T02:17:17.121Z,0.40
2022-08-11T02:20:18.104Z,0.50
2022-08-11T02:23:58.624Z,0.40
2022-08-11T02:26:18.678Z,0.57
2022-08-11T02:29:21.119Z,0.50
2022-08-11T02:32:38.822Z,0.45
2022-08-11T02:35:23.773Z,0.57
2022-08-11T02:37:56.070Z,0.50
2022-08-11T02:40:34.502Z,0.60
2022-08-11T02:43:23.426Z,0.40
2022-08-11T02:46:18.524Z,0.60
2022-08-11T02:52:17.420Z,0.60
2022-08-11T02:55:12.668Z,0.40
2022-08-11T02:58:10.293Z,0.55
2022-08-11T03:01:06.676Z,0.60
2022-08-11T03:04:12.748Z,1.30
2022-08-11T03:06:52.619Z,0.40
2022-08-11T03:09:40.433Z,0.47
2022-08-11T03:12:38.525Z,0.52
2022-08-11T03:15:44.599Z,0.50
2022-08-11T03:18:38.151Z,0.68
2022-08-11T03:21:24.754Z,0.40
2022-08-11T03:24:22.161Z,0.60
2022-08-11T03:27:01.762Z,0.50
2022-08-11T03:29:52.584Z,0.40
2022-08-11T03:32:30.075Z,0.47
2022-08-11T03:35:02.158Z,0.60
2022-08-11T03:37:56.709Z,0.90
2022-08-11T03:42:02.169Z,0.40
2022-08-11T03:44:17.078Z,0.57
2022-08-11T03:46:47.292Z,0.52
2022-08-11T03:49:51.492Z,0.50
2022-08-11T03:52:34.050Z,0.50
2022-08-11T03:55:15.450Z,0.43
2022-08-11T03:58:19.642Z,0.50
2022-08-11T04:01:06.120Z,0.45
2022-08-11T04:03:56.656Z,0.40
2022-08-11T04:06:35.845Z,0.52
2022-08-11T04:09:40.682Z,0.50
2022-08-11T04:12:37.108Z,0.50
2022-08-11T04:15:38.170Z,0.50
2022-08-11T04:18:20.726Z,0.50
2022-08-11T04:21:09.285Z,0.50
2022-08-11T04:24:13.099Z,0.60
2022-08-11T04:29:36.155Z,0.50
2022-08-11T04:32:40.902Z,0.50
2022-08-11T04:35:39.420Z,0.50
2022-08-11T04:38:40.993Z,0.60
2022-08-11T04:41:20.285Z,0.60
2022-08-11T04:44:14.653Z,0.50
2022-08-11T04:46:42.454Z,0.50
2022-08-11T04:49:49.859Z,0.68
2022-08-11T04:53:13.702Z,0.80
2022-08-11T04:56:37.906Z,0.88
2022-08-11T04:59:32.765Z,0.70
2022-08-11T05:02:46.168Z,0.70
2022-08-11T05:05:55.394Z,0.60
2022-08-11T05:08:43.848Z,0.70
2022-08-11T05:11:50.509Z,0.70
2022-08-11T05:15:09.352Z,0.52
2022-08-11T05:18:12.845Z,0.50
2022-08-11T05:21:29.380Z,0.60
2022-08-11T05:24:44.158Z,0.80
2022-08-11T05:27:32.913Z,0.90
2022-08-11T05:30:25.728Z,0.50
2022-08-11T05:33:27.933Z,0.65
2022-08-11T05:36:06.341Z,0.68
2022-08-11T05:38:54.518Z,0.50
2022-08-11T05:41:45.581Z,0.70
2022-08-11T05:44:37.814Z,0.60
2022-08-11T05:47:24.531Z,0.60
2022-08-11T05:50:13.671Z,0.80
2022-08-11T05:53:04.937Z,0.60
2022-08-11T05:56:02.763Z,0.77
2022-08-11T05:58:42.948Z,0.70
2022-08-11T06:01:14.397Z,0.70
2022-08-11T06:04:04.243Z,0.60
2022-08-11T06:06:32.241Z,0.80
2022-08-11T06:09:01.190Z,0.55
2022-08-11T06:11:43.669Z,1.60
2022-08-11T06:14:15.718Z,0.90
2022-08-11T06:16:48.189Z,0.88
2022-08-11T06:19:16.707Z,0.88
2022-08-11T06:21:48.586Z,0.80
2022-08-11T06:24:16.617Z,1.00
2022-08-11T06:27:11.625Z,1.30
2022-08-11T06:29:54.717Z,1.33
2022-08-11T06:32:33.108Z,0.80
2022-08-11T06:35:31.439Z,1.30
2022-08-11T06:38:16.343Z,1.88
2022-08-11T06:44:08.130Z,1.80
2022-08-11T06:46:41.604Z,1.65
2022-08-11T06:49:31.641Z,1.77
2022-08-11T06:52:02.925Z,1.13
2022-08-11T06:54:44.356Z,1.98
2022-08-11T06:57:33.992Z,3.08
2022-08-11T07:00:20.752Z,3.50
2022-08-11T07:03:08.451Z,4.03
2022-08-11T07:05:53.587Z,3.05
2022-08-11T07:09:09.968Z,3.67
2022-08-11T07:12:19.257Z,3.47
2022-08-11T07:15:10.726Z,3.50
2022-08-11T07:18:22.188Z,3.67
2022-08-11T07:21:43.030Z,2.70
2022-08-11T07:24:17.253Z,3.13
2022-08-11T07:27:09.594Z,4.65
2022-08-11T07:29:39.246Z,3.33
2022-08-11T07:32:15.772Z,3.55
2022-08-11T07:34:50.800Z,3.45
2022-08-11T07:37:20.622Z,3.17
2022-08-11T07:39:49.638Z,4.25
2022-08-11T07:42:27.319Z,3.60
2022-08-11T07:45:14.877Z,2.33
2022-08-11T07:48:02.234Z,3.03
2022-08-11T07:50:53.009Z,3.72
2022-08-11T07:53:23.641Z,3.03
2022-08-11T07:55:53.762Z,2.63
2022-08-11T07:58:41.997Z,3.33
2022-08-11T08:01:38.003Z,2.08
2022-08-11T08:04:26.168Z,2.97
2022-08-11T08:07:12.677Z,2.03
2022-08-11T08:10:01.000Z,3.10
2022-08-11T08:12:48.390Z,2.38
2022-08-11T08:15:35.664Z,1.80
2022-08-11T08:18:20.921Z,2.17
2022-08-11T08:20:56.836Z,2.35
2022-08-11T08:23:34.119Z,2.03
2022-08-11T08:26:26.528Z,2.83
2022-08-11T08:29:15.934Z,1.77
2022-08-11T08:31:45.073Z,3.13
2022-08-11T08:34:14.029Z,2.75
2022-08-11T08:36:44.927Z,2.20
2022-08-11T08:39:14.099Z,3.40
2022-08-11T08:41:43.702Z,3.90
2022-08-11T08:47:06.202Z,2.13
2022-08-11T08:49:42.018Z,2.35
2022-08-11T08:52:26.184Z,4.13
2022-08-11T08:55:06.854Z,3.35
2022-08-11T08:57:39.107Z,1.75
2022-08-11T09:00:12.474Z,2.78
2022-08-11T09:02:44.263Z,2.40
2022-08-11T09:05:12.678Z,2.30
2022-08-11T09:07:41.522Z,1.58
2022-08-11T09:10:11.092Z,1.45
2022-08-11T09:12:42.869Z,1.80
2022-08-11T09:15:12.351Z,1.60
2022-08-11T09:17:41.705Z,1.70
2022-08-11T09:20:26.340Z,2.85
2022-08-11T09:24:08.771Z,1.83
2022-08-11T09:26:30.506Z,1.92
2022-08-11T09:29:00.880Z,2.13
2022-08-11T09:31:37.258Z,3.45
2022-08-11T09:34:08.104Z,3.75
2022-08-11T09:36:53.913Z,2.53
2022-08-11T09:39:40.058Z,1.30
2022-08-11T09:42:11.185Z,1.20
2022-08-11T09:44:51.080Z,1.48
2022-08-11T09:47:26.312Z,1.70
2022-08-11T09:50:01.025Z,2.08
2022-08-11T09:52:38.736Z,1.85
2022-08-11T09:55:11.425Z,1.52
2022-08-11T09:57:59.616Z,1.42
2022-08-11T10:00:33.103Z,0.93
2022-08-11T10:03:07.337Z,1.00
2022-08-11T10:05:54.045Z,1.35
2022-08-11T10:08:22.973Z,1.02
2022-08-11T10:10:50.959Z,0.73
2022-08-11T10:14:31.583Z,1.13
2022-08-11T10:16:16.060Z,1.02
2022-08-11T10:18:51.656Z,1.00
2022-08-11T10:21:37.455Z,0.65
2022-08-11T10:24:26.188Z,1.20
2022-08-11T10:26:55.749Z,1.20
2022-08-11T10:29:49.818Z,0.98
2022-08-11T10:32:58.328Z,0.60
2022-08-11T10:35:32.336Z,0.73
2022-08-11T10:38:08.948Z,0.60
2022-08-11T10:40:41.631Z,0.60
2022-08-11T10:43:56.803Z,0.60
2022-08-11T10:46:29.767Z,0.63
2022-08-11T10:49:00.151Z,1.23
2022-08-11T10:51:51.963Z,0.50
2022-08-11T10:54:41.045Z,0.65
2022-08-11T10:57:27.778Z,0.63
2022-08-11T10:59:57.489Z,0.57
2022-08-11T11:02:27.334Z,0.60
2022-08-11T11:05:03.430Z,0.45
2022-08-11T11:07:46.532Z,0.57
2022-08-11T11:10:14.087Z,0.90
2022-08-11T11:13:06.092Z,0.60
2022-08-11T11:15:55.380Z,0.70
2022-08-11T11:18:25.677Z,0.50
2022-08-11T11:20:56.682Z,0.50
2022-08-11T11:23:40.538Z,0.40
2022-08-11T11:26:27.205Z,0.40
2022-08-11T11:29:20.569Z,0.60
2022-08-11T11:31:59.402Z,0.60
2022-08-11T11:35:00.340Z,0.50
2022-08-11T11:37:32.420Z,0.30
2022-08-11T11:40:02.479Z,0.55
2022-08-11T11:42:30.499Z,0.50
2022-08-11T11:45:01.170Z,0.40
2022-08-11T11:47:30.287Z,0.40
2022-08-11T11:49:57.975Z,0.45
2022-08-11T11:52:26.455Z,0.40
2022-08-11T11:54:57.042Z,0.40
2022-08-11T11:57:58.784Z,0.40
2022-08-11T12:00:47.980Z,0.63
2022-08-11T12:03:16.500Z,0.60
2022-08-11T12:05:44.868Z,0.50
2022-08-11T12:08:15.416Z,0.40
2022-08-11T12:11:13.778Z,0.45
2022-08-11T12:13:43.259Z,0.30
2022-08-11T12:16:34.073Z,0.50
2022-08-11T12:19:01.438Z,0.40
2022-08-11T12:21:29.887Z,0.40
2022-08-11T12:24:18.483Z,0.30
2022-08-11T12:27:15.051Z,0.40
2022-08-11T12:29:41.202Z,0.32
2022-08-11T12:32:11.737Z,0.40
2022-08-11T12:34:39.129Z,0.40
2022-08-11T12:37:14.035Z,0.40
2022-08-11T12:40:15.886Z,0.38
2022-08-11T12:43:22.002Z,0.30
2022-08-11T12:45:58.658Z,0.32
2022-08-11T12:48:59.911Z,0.40
2022-08-11T12:52:13.866Z,0.30
2022-08-11T12:55:13.187Z,0.43
2022-08-11T12:58:06.352Z,0.40
2022-08-11T13:00:52.554Z,0.50
2022-08-11T13:03:40.343Z,0.30
2022-08-11T13:06:08.824Z,0.40
2022-08-11T13:08:39.361Z,0.50
2022-08-11T13:11:56.529Z,0.40
2022-08-11T13:14:15.338Z,0.50
2022-08-11T13:17:04.372Z,0.60
2022-08-11T13:19:34.680Z,0.40
2022-08-11T13:22:05.433Z,0.50
2022-08-11T13:24:34.585Z,0.40
2022-08-11T13:27:03.156Z,0.40
2022-08-11T13:29:30.998Z,0.35
2022-08-11T13:32:02.457Z,0.40
2022-08-11T13:34:34.473Z,0.40
2022-08-11T13:37:05.294Z,0.40
2022-08-11T13:39:33.867Z,0.85
2022-08-11T13:42:02.869Z,0.45
2022-08-11T13:44:34.383Z,0.50
2022-08-11T13:47:04.857Z,0.50
2022-08-11T13:49:35.059Z,1.15
2022-08-11T13:52:04.080Z,0.90
2022-08-11T13:54:35.200Z,2.05
2022-08-11T13:57:09.059Z,1.45
2022-08-11T13:59:52.755Z,1.00
2022-08-11T14:02:30.710Z,0.75
2022-08-11T14:05:18.045Z,0.60
2022-08-11T14:07:52.136Z,0.50
2022-08-11T14:13:25.370Z,0.40
2022-08-11T14:15:53.534Z,0.40
2022-08-11T14:18:28.891Z,0.47
2022-08-11T14:21:23.249Z,0.40
2022-08-11T14:23:55.401Z,0.40
2022-08-11T14:26:23.811Z,0.40
2022-08-11T14:28:59.247Z,0.35
2022-08-11T14:31:28.648Z,0.35
2022-08-11T14:34:01.301Z,0.30
2022-08-11T14:36:38.679Z,0.30
2022-08-11T14:39:13.213Z,0.40
2022-08-11T14:42:10.087Z,0.30
2022-08-11T14:45:05.147Z,0.38
2022-08-11T14:47:36.008Z,0.60
2022-08-11T14:50:10.312Z,0.60
2022-08-11T14:53:01.175Z,0.70
2022-08-11T14:55:50.688Z,0.60
2022-08-11T14:58:23.577Z,0.55
2022-08-11T15:00:54.631Z,0.70
2022-08-11T15:03:27.975Z,0.47
2022-08-11T15:06:00.106Z,0.55
2022-08-11T15:08:49.764Z,0.47
2022-08-11T15:11:38.783Z,1.10
2022-08-11T15:14:08.936Z,0.50
2022-08-11T15:17:01.625Z,0.50
2022-08-11T15:19:40.610Z,0.60
2022-08-11T15:22:28.974Z,0.57
2022-08-11T15:24:59.083Z,0.47
2022-08-11T15:27:46.663Z,0.50
2022-08-11T15:30:34.243Z,0.52
2022-08-11T15:33:26.612Z,0.47
2022-08-11T15:36:13.774Z,0.50
2022-08-11T15:38:47.484Z,0.50
2022-08-11T15:41:37.521Z,0.40
2022-08-11T15:44:51.485Z,0.40
2022-08-11T15:47:22.720Z,0.40
2022-08-11T15:52:47.325Z,0.40
2022-08-11T15:55:15.787Z,0.40
2022-08-11T15:58:03.224Z,0.40
2022-08-11T16:00:49.542Z,0.40
2022-08-11T16:04:07.146Z,0.40
2022-08-11T16:07:12.868Z,0.40
2022-08-11T16:12:42.699Z,0.50
2022-08-11T16:15:29.930Z,0.35
2022-08-11T16:18:01.592Z,0.40
2022-08-11T16:20:30.884Z,0.40
2022-08-11T16:23:03.553Z,0.40
2022-08-11T16:27:02.680Z,0.50
2022-08-11T16:28:23.325Z,0.30
2022-08-11T16:30:51.897Z,0.40
2022-08-11T16:33:50.670Z,0.60
2022-08-11T16:36:32.174Z,0.60
2022-08-11T16:39:00.821Z,0.52
2022-08-11T16:41:54.533Z,0.50
2022-08-11T16:44:41.822Z,0.50
2022-08-11T16:47:18.522Z,0.40
2022-08-11T16:50:07.649Z,0.50
2022-08-11T16:52:35.023Z,0.40
2022-08-11T16:55:05.441Z,0.50
2022-08-11T16:57:52.637Z,0.50
2022-08-11T17:00:19.886Z,0.43
2022-08-11T17:03:11.485Z,0.40
2022-08-11T17:06:18.044Z,0.40
2022-08-11T17:09:10.919Z,0.40
2022-08-11T17:12:03.986Z,0.40
2022-08-11T17:14:46.115Z,0.68
2022-08-11T17:17:22.909Z,0.40
2022-08-11T17:20:39.564Z,0.43
2022-08-11T17:23:02.269Z,0.50
2022-08-11T17:25:32.389Z,0.38
2022-08-11T17:28:21.449Z,0.50
2022-08-11T17:31:19.908Z,0.40
2022-08-11T17:34:10.451Z,0.40
2022-08-11T17:36:40.449Z,0.65
2022-08-11T17:39:13.561Z,0.70
2022-08-11T17:42:00.691Z,0.43
2022-08-11T17:44:47.060Z,0.40
2022-08-11T17:47:33.737Z,0.50
2022-08-11T17:50:16.558Z,0.45
2022-08-11T17:53:10.037Z,0.30
2022-08-11T17:55:57.807Z,0.30
2022-08-11T17:58:45.301Z,0.30
2022-08-11T18:01:13.353Z,0.35
2022-08-11T18:03:57.841Z,0.45
2022-08-11T18:06:34.861Z,0.50
2022-08-11T18:09:23.800Z,0.40
2022-08-11T18:12:13.067Z,0.30
2022-08-11T18:15:06.209Z,0.50
2022-08-11T18:17:52.783Z,0.40
2022-08-11T18:20:39.171Z,0.50
2022-08-11T18:23:41.814Z,0.38
2022-08-11T18:26:38.102Z,0.45
2022-08-11T18:29:27.442Z,0.40
2022-08-11T18:32:21.772Z,0.40
2022-08-11T18:35:11.388Z,0.40
2022-08-11T18:38:05.332Z,0.38
2022-08-11T18:40:54.300Z,0.40
2022-08-11T18:43:43.130Z,0.40
2022-08-11T18:46:31.835Z,0.40
2022-08-11T18:49:22.161Z,0.30
2022-08-11T18:52:12.022Z,0.43
2022-08-11T18:55:01.922Z,0.30
2022-08-11T18:57:49.729Z,0.40
2022-08-11T19:00:41.933Z,0.30
2022-08-11T19:03:31.021Z,0.40
2022-08-11T19:06:39.853Z,0.40
2022-08-11T19:09:28.749Z,0.60
2022-08-11T19:12:17.260Z,0.30
2022-08-11T19:15:04.591Z,0.38
2022-08-11T19:17:52.936Z,0.32
2022-08-11T19:20:42.223Z,0.45
2022-08-11T19:23:30.519Z,0.35
2022-08-11T19:26:20.005Z,0.30
2022-08-11T19:29:08.284Z,0.30
2022-08-11T19:31:57.111Z,0.30
2022-08-11T19:34:44.214Z,0.30
2022-08-11T19:37:31.149Z,0.30
2022-08-11T19:40:21.568Z,0.30
2022-08-11T19:43:14.754Z,0.40
2022-08-11T19:46:11.804Z,0.30
2022-08-11T19:49:00.034Z,0.40
2022-08-11T19:51:53.473Z,0.38
2022-08-11T19:54:47.275Z,0.40
2022-08-11T19:57:39.260Z,0.40
2022-08-11T20:00:32.517Z,0.40
2022-08-11T20:03:24.063Z,0.40
2022-08-11T20:06:11.477Z,0.40
2022-08-11T20:09:01.971Z,0.32
2022-08-11T20:11:52.501Z,0.30
2022-08-11T20:14:39.852Z,0.50
2022-08-11T20:17:27.230Z,0.30
2022-08-11T20:20:14.520Z,0.40
2022-08-11T20:23:01.946Z,0.30
2022-08-11T20:25:48.499Z,0.32
2022-08-11T20:28:39.160Z,0.38
2022-08-11T20:31:26.242Z,0.47
2022-08-11T20:34:13.482Z,0.57
2022-08-11T20:37:01.079Z,0.50
2022-08-11T20:39:47.949Z,0.35
2022-08-11T20:42:34.996Z,0.50
2022-08-11T20:45:23.831Z,0.40
2022-08-11T20:48:14.716Z,0.40
2022-08-11T20:51:07.304Z,0.50
2022-08-11T20:54:05.412Z,0.50
2022-08-11T20:56:54.921Z,0.40
2022-08-11T20:59:49.592Z,0.40
2022-08-11T21:02:44.925Z,0.50
2022-08-11T21:06:10.399Z,0.50
2022-08-11T21:08:41.754Z,0.40
2022-08-11T21:11:29.319Z,0.50
2022-08-11T21:14:17.124Z,0.40
2022-08-11T21:17:27.718Z,0.43
2022-08-11T21:20:21.049Z,0.60
2022-08-11T21:23:24.317Z,0.52
2022-08-11T21:26:25.026Z,0.70
2022-08-11T21:29:13.780Z,0.40
2022-08-11T21:32:01.388Z,0.60
2022-08-11T21:34:49.757Z,0.80
2022-08-11T21:37:36.719Z,0.40
2022-08-11T21:40:25.852Z,0.40
2022-08-11T21:43:13.901Z,0.50
2022-08-11T21:46:02.168Z,0.50
2022-08-11T21:48:49.323Z,0.50
2022-08-11T21:51:35.457Z,0.60
2022-08-11T21:54:22.017Z,0.57
2022-08-11T21:57:09.278Z,0.40
2022-08-11T22:00:01.001Z,0.40
2022-08-11T22:02:49.008Z,0.50
2022-08-11T22:05:40.162Z,0.50
2022-08-11T22:08:27.510Z,0.50
2022-08-11T22:11:13.831Z,0.70
2022-08-11T22:14:05.954Z,0.63
2022-08-11T22:16:55.056Z,0.50
2022-08-11T22:19:42.458Z,0.40
2022-08-11T22:22:31.769Z,0.52
2022-08-11T22:25:18.800Z,0.50
2022-08-11T22:28:06.569Z,0.40
2022-08-11T22:30:52.827Z,0.47
2022-08-11T22:33:51.726Z,0.45
2022-08-11T22:36:46.782Z,0.50
2022-08-11T22:39:35.369Z,0.57
2022-08-11T22:42:33.288Z,0.60
2022-08-11T22:45:20.366Z,0.60
2022-08-11T22:48:08.076Z,0.50
2022-08-11T22:50:57.219Z,0.55
2022-08-11T22:53:54.990Z,0.95
2022-08-11T22:56:49.682Z,0.57
2022-08-11T22:59:37.486Z,0.50
2022-08-11T23:02:25.637Z,1.02
2022-08-11T23:05:12.011Z,0.60
2022-08-11T23:07:59.261Z,0.70
2022-08-11T23:10:46.206Z,0.60
2022-08-11T23:13:32.495Z,0.60
2022-08-11T23:16:19.590Z,0.60
2022-08-11T23:19:07.296Z,0.73
2022-08-11T23:21:53.626Z,0.60
2022-08-11T23:24:40.279Z,0.70
2022-08-11T23:27:28.442Z,0.73
2022-08-11T23:30:18.993Z,0.60
2022-08-11T23:33:10.308Z,0.50
2022-08-11T23:36:03.314Z,0.60
2022-08-11T23:38:51.094Z,0.70
2022-08-11T23:41:37.292Z,0.70
2022-08-11T23:44:24.256Z,0.63
2022-08-11T23:47:13.999Z,0.60
2022-08-11T23:50:01.241Z,0.70
2022-08-11T23:52:48.797Z,0.70
2022-08-11T23:55:39.186Z,0.60
2022-08-11T23:58:25.926Z,0.90
